Time;durP1;ratioP1;P1;durP2;ratioP2;P2;SDS_P1;SDS_P2;PMS_P1;PMS_P2;Temp;Humidity;BMP_temperature;BMP_pressure;BME280_temperature;BME280_humidity;BME280_pressure;Samples;Min_cycle;Max_cycle;Signal;HPM_P1;HPM_P2
2021/06/29 00:00:16;;;;;;;10.57;3.33;;;;;7.00;101450.00;;;;5108778;28;20034;-76
2021/06/29 00:02:42;;;;;;;5.97;3.38;;;;;7.10;101482.00;;;;5081366;28;20050;-78
2021/06/29 00:05:09;;;;;;;5.05;3.58;;;;;7.10;101474.00;;;;5098678;28;20032;-78
2021/06/29 00:07:36;;;;;;;4.97;3.58;;;;;7.10;101491.00;;;;5096175;28;20028;-78
2021/06/29 00:10:04;;;;;;;9.68;4.97;;;;;7.00;101488.00;;;;5087913;28;20064;-77
2021/06/29 00:12:33;;;;;;;5.07;3.78;;;;;7.00;101488.00;;;;5088008;28;20032;-77
2021/06/29 00:15:00;;;;;;;7.75;3.97;;;;;7.00;101468.00;;;;5087756;28;20065;-77
2021/06/29 00:17:26;;;;;;;5.80;3.47;;;;;7.10;101479.00;;;;5088129;28;20418;-77
2021/06/29 00:19:53;;;;;;;5.80;2.97;;;;;7.10;101473.00;;;;5087979;28;20028;-76
2021/06/29 00:22:19;;;;;;;7.38;3.90;;;;;7.10;101496.00;;;;5088084;28;20035;-77
2021/06/29 00:24:46;;;;;;;6.50;3.70;;;;;7.10;101490.00;;;;5088102;28;20090;-77
2021/06/29 00:27:13;;;;;;;6.32;3.85;;;;;7.10;101486.00;;;;5088173;28;20046;-77
2021/06/29 00:29:39;;;;;;;4.50;2.40;;;;;7.20;101480.00;;;;5087962;28;20483;-77
2021/06/29 00:32:06;;;;;;;3.63;2.30;;;;;7.30;101505.00;;;;5088104;28;20031;-78
2021/06/29 00:34:33;;;;;;;4.47;2.60;;;;;7.30;101492.00;;;;5087430;28;20040;-77
2021/06/29 00:37:00;;;;;;;6.03;2.67;;;;;7.40;101483.00;;;;5087912;28;20423;-78
2021/06/29 00:39:26;;;;;;;6.50;3.00;;;;;7.30;101472.00;;;;5087802;28;20028;-77
2021/06/29 00:41:53;;;;;;;6.22;2.80;;;;;7.30;101492.00;;;;5087035;28;20028;-77
2021/06/29 00:44:21;;;;;;;5.22;2.70;;;;;7.40;101479.00;;;;5087227;28;20430;-77
2021/06/29 00:46:48;;;;;;;3.35;2.03;;;;;7.40;101472.00;;;;5087940;28;20028;-77
2021/06/29 00:49:16;;;;;;;2.97;1.80;;;;;7.50;101496.00;;;;5087592;28;20380;-77
2021/06/29 00:51:43;;;;;;;3.38;2.05;;;;;7.50;101474.00;;;;5087582;28;20482;-77
2021/06/29 00:54:12;;;;;;;4.93;2.10;;;;;7.40;101469.00;;;;5087176;28;20028;-78
2021/06/29 00:56:39;;;;;;;4.38;2.25;;;;;7.50;101456.00;;;;5068932;28;20518;-79
2021/06/29 00:59:05;;;;;;;3.20;2.10;;;;;7.40;101498.00;;;;5087126;28;20628;-77
2021/06/29 01:01:32;;;;;;;3.75;1.88;;;;;7.30;101491.00;;;;5087198;28;20031;-76
2021/06/29 01:03:59;;;;;;;1.60;1.40;;;;;7.20;101496.00;;;;5087138;28;20506;-77
2021/06/29 01:06:28;;;;;;;2.33;1.40;;;;;7.10;101484.00;;;;5086250;28;20024;-80
2021/06/29 01:08:55;;;;;;;3.20;1.45;;;;;7.20;101485.00;;;;5085691;28;20028;-79
2021/06/29 01:11:22;;;;;;;4.38;1.90;;;;;7.30;101488.00;;;;5086396;28;20054;-77
2021/06/29 01:13:49;;;;;;;4.53;1.73;;;;;7.30;101487.00;;;;5086931;28;20038;-78
2021/06/29 01:16:16;;;;;;;2.05;1.33;;;;;7.40;101485.00;;;;5087235;28;20111;-77
2021/06/29 01:18:45;;;;;;;4.10;1.30;;;;;7.40;101488.00;;;;5087218;28;20054;-78
2021/06/29 01:21:19;;;;;;;3.20;1.70;;;;;7.50;101494.00;;;;5087024;28;20016;-77
2021/06/29 01:23:55;;;;;;;3.80;1.90;;;;;7.50;101501.00;;;;5086705;28;20043;-76
2021/06/29 01:26:24;;;;;;;2.75;1.52;;;;;7.50;101514.00;;;;5086565;28;20024;-77
2021/06/29 01:31:32;;;;;;;3.63;1.77;;;;;7.50;101540.00;;;;5086668;28;20055;-77
2021/06/29 01:33:59;;;;;;;3.15;1.55;;;;;7.50;101534.00;;;;5086906;28;20486;-78
2021/06/29 01:36:33;;;;;;;4.55;1.65;;;;;7.50;101531.00;;;;5087086;28;20032;-77
2021/06/29 01:39:02;;;;;;;4.85;2.58;;;;;7.40;101507.00;;;;5068934;28;20491;-76
2021/06/29 01:41:28;;;;;;;4.40;1.60;;;;;7.30;101508.00;;;;5086949;28;20036;-78
2021/06/29 01:46:24;;;;;;;4.47;1.88;;;;;7.20;101535.00;;;;5086701;28;20039;-77
2021/06/29 01:48:53;;;;;;;7.88;1.98;;;;;7.20;101513.00;;;;5086693;28;20489;-77
2021/06/29 01:51:20;;;;;;;3.92;1.90;;;;;7.30;101548.00;;;;5087040;28;20047;-76
2021/06/29 01:53:49;;;;;;;3.60;1.77;;;;;7.30;101551.00;;;;5086447;28;20032;-77
2021/06/29 01:56:17;;;;;;;2.90;1.63;;;;;7.30;101528.00;;;;5086471;28;20109;-76
2021/06/29 01:58:51;;;;;;;3.13;2.03;;;;;7.20;101541.00;;;;5086749;28;20063;-77
2021/06/29 02:01:19;;;;;;;3.22;1.58;;;;;7.20;101536.00;;;;5086149;28;20036;-78
2021/06/29 02:03:46;;;;;;;3.00;1.23;;;;;7.10;101557.00;;;;5086681;28;20036;-77
2021/06/29 02:06:14;;;;;;;3.05;1.50;;;;;7.10;101535.00;;;;5086767;28;20032;-78
2021/06/29 02:08:40;;;;;;;2.05;1.20;;;;;7.10;101523.00;;;;5087351;28;20032;-79
2021/06/29 02:11:07;;;;;;;6.07;1.50;;;;;7.10;101528.00;;;;5105108;28;20103;-76
2021/06/29 02:13:33;;;;;;;3.60;1.27;;;;;7.00;101544.00;;;;5111082;28;20031;-76
2021/06/29 02:16:01;;;;;;;3.03;1.30;;;;;7.00;101533.00;;;;5100228;28;20552;-77
2021/06/29 02:18:30;;;;;;;4.72;0.80;;;;;6.90;101542.00;;;;5091610;28;20027;-78
2021/06/29 02:20:57;;;;;;;1.30;1.05;;;;;6.90;101533.00;;;;5091602;28;20510;-76
2021/06/29 02:23:24;;;;;;;1.67;0.90;;;;;7.00;101551.00;;;;5091061;28;20036;-77
2021/06/29 02:25:51;;;;;;;1.90;1.15;;;;;7.10;101554.00;;;;5091139;28;20554;-78
2021/06/29 02:28:19;;;;;;;1.50;1.08;;;;;7.10;101525.00;;;;5072557;28;20024;-79
2021/06/29 02:30:45;;;;;;;2.63;1.17;;;;;7.10;101535.00;;;;5090495;28;20028;-78
2021/06/29 02:33:12;;;;;;;2.20;1.08;;;;;7.10;101543.00;;;;5090518;28;20452;-76
2021/06/29 02:35:39;;;;;;;5.28;1.20;;;;;7.10;101524.00;;;;5091214;28;20024;-77
2021/06/29 02:38:06;;;;;;;2.95;1.17;;;;;7.00;101511.00;;;;5089711;28;20085;-77
2021/06/29 02:40:33;;;;;;;3.65;1.20;;;;;7.00;101518.00;;;;5090170;28;20490;-77
2021/06/29 02:43:00;;;;;;;2.17;1.00;;;;;7.00;101530.00;;;;5090687;28;20082;-77
2021/06/29 02:45:27;;;;;;;2.97;1.50;;;;;7.00;101516.00;;;;5090581;28;20915;-78
2021/06/29 02:47:57;;;;;;;4.57;1.08;;;;;7.10;101528.00;;;;5090207;28;20028;-78
2021/06/29 02:50:24;;;;;;;2.33;1.08;;;;;7.10;101551.00;;;;5089790;28;20074;-77
2021/06/29 02:52:51;;;;;;;1.02;0.80;;;;;7.20;101557.00;;;;5090127;28;20146;-79
2021/06/29 02:55:18;;;;;;;2.15;1.10;;;;;7.20;101555.00;;;;5089984;28;20032;-78
2021/06/29 02:57:45;;;;;;;2.53;0.90;;;;;7.20;101548.00;;;;5089695;28;20047;-78
2021/06/29 03:00:15;;;;;;;2.67;1.17;;;;;7.10;101545.00;;;;5090496;28;20110;-77
2021/06/29 03:02:42;;;;;;;3.72;1.25;;;;;7.10;101551.00;;;;5090117;28;20026;-80
2021/06/29 03:05:09;;;;;;;3.50;1.20;;;;;7.00;101535.00;;;;5089269;28;20032;-78
2021/06/29 03:07:35;;;;;;;4.88;1.17;;;;;7.00;101534.00;;;;5089620;28;20402;-77
2021/06/29 03:10:04;;;;;;;2.25;1.08;;;;;6.80;101523.00;;;;5088680;28;20474;-76
2021/06/29 03:12:31;;;;;;;3.58;0.90;;;;;6.70;101529.00;;;;5089507;28;20087;-76
2021/06/29 03:14:59;;;;;;;3.28;1.15;;;;;6.70;101510.00;;;;5089285;28;20020;-77
2021/06/29 03:17:26;;;;;;;3.63;0.95;;;;;6.60;101513.00;;;;5089145;28;20031;-78
2021/06/29 03:19:53;;;;;;;1.05;0.80;;;;;6.60;101534.00;;;;5089062;28;20085;-78
2021/06/29 03:22:19;;;;;;;2.92;1.15;;;;;6.50;101503.00;;;;5088334;28;20042;-77
2021/06/29 03:24:46;;;;;;;3.00;1.00;;;;;6.50;101519.00;;;;5089394;28;20107;-78
2021/06/29 03:27:13;;;;;;;2.25;0.98;;;;;6.50;101504.00;;;;5089916;28;20031;-75
2021/06/29 03:29:40;;;;;;;1.13;1.00;;;;;6.40;101531.00;;;;5089391;28;20047;-77
2021/06/29 03:32:07;;;;;;;1.60;0.80;;;;;6.30;101526.00;;;;5089261;28;20032;-77
2021/06/29 03:34:34;;;;;;;1.83;1.00;;;;;6.30;101531.00;;;;5088855;28;20100;-77
2021/06/29 03:37:02;;;;;;;3.40;1.23;;;;;6.30;101498.00;;;;5089440;28;20044;-78
2021/06/29 03:39:30;;;;;;;3.58;1.45;;;;;6.40;101501.00;;;;5088447;28;20039;-77
2021/06/29 03:41:57;;;;;;;2.28;1.58;;;;;6.40;101512.00;;;;5088991;28;20069;-78
2021/06/29 03:44:24;;;;;;;2.00;1.15;;;;;6.50;101516.00;;;;5088660;28;20075;-77
2021/06/29 03:46:50;;;;;;;1.95;1.13;;;;;6.40;101523.00;;;;5088713;28;20032;-75
2021/06/29 03:49:17;;;;;;;1.05;0.70;;;;;6.40;101500.00;;;;5088723;28;20024;-77
2021/06/29 03:51:43;;;;;;;2.83;0.80;;;;;6.40;101488.00;;;;5088575;28;20074;-77
2021/06/29 03:54:10;;;;;;;3.58;0.80;;;;;6.30;101508.00;;;;5089171;28;20030;-77
2021/06/29 03:56:37;;;;;;;2.08;0.80;;;;;6.20;101490.00;;;;5088433;28;20024;-76
2021/06/29 03:59:07;;;;;;;2.35;0.85;;;;;6.20;101523.00;;;;5088543;28;20113;-74
2021/06/29 04:01:34;;;;;;;4.28;1.13;;;;;6.30;101511.00;;;;5088426;28;20032;-75
2021/06/29 04:04:02;;;;;;;3.20;0.80;;;;;6.30;101488.00;;;;5088470;28;20032;-76
2021/06/29 04:06:31;;;;;;;1.65;0.90;;;;;6.20;101485.00;;;;5088579;28;20032;-76
2021/06/29 04:08:59;;;;;;;3.67;0.70;;;;;6.20;101481.00;;;;5088637;28;20024;-75
2021/06/29 04:11:27;;;;;;;1.88;0.80;;;;;6.20;101486.00;;;;5088391;28;20070;-76
2021/06/29 04:13:54;;;;;;;2.90;0.80;;;;;6.20;101490.00;;;;5088260;28;20030;-77
2021/06/29 04:16:22;;;;;;;3.05;0.85;;;;;6.30;101508.00;;;;5088462;28;20073;-76
2021/06/29 04:18:49;;;;;;;3.90;0.82;;;;;6.30;101479.00;;;;5088298;28;20221;-76
2021/06/29 04:21:16;;;;;;;4.35;1.10;;;;;6.30;101472.00;;;;5088230;28;20028;-76
2021/06/29 04:23:44;;;;;;;2.78;0.70;;;;;6.30;101502.00;;;;5088382;28;20043;-77
2021/06/29 04:26:13;;;;;;;1.58;0.63;;;;;6.40;101506.00;;;;5088323;28;20107;-77
2021/06/29 04:28:40;;;;;;;2.92;0.88;;;;;6.50;101495.00;;;;5088115;28;20447;-77
2021/06/29 04:31:07;;;;;;;1.38;0.65;;;;;6.60;101494.00;;;;5087878;28;20028;-76
2021/06/29 04:33:33;;;;;;;1.83;0.65;;;;;6.70;101461.00;;;;5069083;28;20042;-76
2021/06/29 04:36:00;;;;;;;2.20;0.90;;;;;6.70;101469.00;;;;5087437;28;20031;-76
2021/06/29 04:38:26;;;;;;;1.35;0.77;;;;;6.80;101484.00;;;;5088283;28;20058;-77
2021/06/29 04:40:53;;;;;;;0.65;0.52;;;;;6.90;101472.00;;;;5087805;28;20020;-75
2021/06/29 04:43:20;;;;;;;1.17;0.70;;;;;7.00;101486.00;;;;5087854;28;20066;-79
2021/06/29 04:45:46;;;;;;;4.18;0.82;;;;;7.00;101478.00;;;;5069546;28;20028;-77
2021/06/29 04:48:13;;;;;;;1.48;0.77;;;;;7.00;101482.00;;;;5087721;28;20036;-77
2021/06/29 04:50:40;;;;;;;0.65;0.50;;;;;7.00;101469.00;;;;5087638;28;20033;-77
2021/06/29 04:53:06;;;;;;;1.33;0.70;;;;;7.00;101462.00;;;;5087871;28;20028;-78
2021/06/29 04:55:33;;;;;;;2.65;0.90;;;;;7.00;101485.00;;;;5087425;28;20046;-77
2021/06/29 04:58:00;;;;;;;3.50;0.88;;;;;7.00;101453.00;;;;5087045;28;20143;-78
2021/06/29 05:00:27;;;;;;;1.00;0.60;;;;;7.00;101475.00;;;;5087371;28;20024;-78
2021/06/29 05:02:53;;;;;;;1.00;0.70;;;;;7.00;101485.00;;;;5087521;28;20085;-77
2021/06/29 05:05:21;;;;;;;2.80;0.73;;;;;7.10;101452.00;;;;5087426;28;20040;-78
2021/06/29 05:07:50;;;;;;;3.40;0.85;;;;;7.10;101435.00;;;;5087610;28;20031;-76
2021/06/29 05:10:17;;;;;;;1.58;0.50;;;;;7.00;101435.00;;;;5087260;28;20028;-77
2021/06/29 05:12:43;;;;;;;0.77;0.40;;;;;7.00;101449.00;;;;5087230;28;20399;-77
2021/06/29 05:15:10;;;;;;;2.78;0.70;;;;;7.00;101443.00;;;;5086865;28;20044;-76
2021/06/29 05:17:37;;;;;;;5.00;0.93;;;;;6.90;101453.00;;;;5087372;28;20047;-78
2021/06/29 05:20:05;;;;;;;1.17;0.68;;;;;7.00;101465.00;;;;5069015;28;20028;-77
2021/06/29 05:22:32;;;;;;;0.75;0.40;;;;;7.00;101461.00;;;;5086824;28;20391;-76
2021/06/29 05:25:00;;;;;;;1.52;0.70;;;;;7.00;101430.00;;;;5087054;28;20034;-77
2021/06/29 05:27:27;;;;;;;3.08;0.80;;;;;6.90;101418.00;;;;5086811;28;20476;-77
2021/06/29 05:29:53;;;;;;;3.17;0.90;;;;;6.90;101414.00;;;;5087476;28;20972;-77
2021/06/29 05:32:20;;;;;;;2.90;0.82;;;;;6.70;101421.00;;;;5068877;28;20036;-77
2021/06/29 05:34:47;;;;;;;4.28;0.60;;;;;6.60;101403.00;;;;5087398;28;20027;-78
2021/06/29 05:37:13;;;;;;;2.08;0.75;;;;;6.60;101391.00;;;;5087522;28;20032;-77
2021/06/29 05:39:40;;;;;;;1.15;0.55;;;;;6.60;101394.00;;;;5086744;28;20036;-75
2021/06/29 05:42:07;;;;;;;1.25;0.60;;;;;6.60;101392.00;;;;5086751;28;20035;-75
2021/06/29 05:44:33;;;;;;;0.63;0.52;;;;;6.60;101385.00;;;;5086636;28;20411;-77
2021/06/29 05:47:04;;;;;;;2.25;0.75;;;;;6.50;101382.00;;;;5089564;28;20032;-79
2021/06/29 05:49:32;;;;;;;1.57;0.67;;;;;6.50;101398.00;;;;5091067;28;20539;-78
2021/06/29 05:51:58;;;;;;;0.80;0.40;;;;;6.50;101399.00;;;;5090911;28;20028;-76
2021/06/29 05:54:25;;;;;;;2.28;0.57;;;;;6.40;101412.00;;;;5090945;28;20020;-77
2021/06/29 05:56:52;;;;;;;2.90;0.60;;;;;6.40;101395.00;;;;5090751;28;20024;-78
2021/06/29 05:59:19;;;;;;;2.42;0.63;;;;;6.40;101391.00;;;;5090887;28;20517;-76
2021/06/29 06:01:45;;;;;;;1.55;0.90;;;;;6.30;101376.00;;;;5091529;28;20028;-77
2021/06/29 06:04:12;;;;;;;1.77;0.60;;;;;6.30;101349.00;;;;5090943;28;20475;-78
2021/06/29 06:06:38;;;;;;;2.42;0.70;;;;;6.30;101366.00;;;;5090949;28;20115;-79
2021/06/29 06:09:05;;;;;;;1.55;0.70;;;;;6.20;101394.00;;;;5091173;28;20185;-77
2021/06/29 06:11:32;;;;;;;0.98;0.50;;;;;6.10;101392.00;;;;5090017;28;20541;-76
2021/06/29 06:13:58;;;;;;;1.75;0.50;;;;;6.00;101365.00;;;;5091149;28;20119;-76
2021/06/29 06:16:25;;;;;;;1.38;0.80;;;;;6.10;101365.00;;;;5090633;28;20066;-76
2021/06/29 06:18:51;;;;;;;1.23;0.50;;;;;6.10;101391.00;;;;5090900;28;20510;-76
2021/06/29 06:21:18;;;;;;;1.45;0.65;;;;;6.00;101394.00;;;;5090354;28;20023;-77
2021/06/29 06:23:44;;;;;;;1.10;0.60;;;;;5.90;101388.00;;;;5090464;28;20517;-77
2021/06/29 06:26:11;;;;;;;0.63;0.50;;;;;5.90;101386.00;;;;5090563;28;20028;-78
2021/06/29 06:28:38;;;;;;;2.58;0.65;;;;;5.90;101378.00;;;;5091068;28;20028;-76
2021/06/29 06:31:04;;;;;;;3.22;0.70;;;;;5.80;101349.00;;;;5090719;28;20024;-77
2021/06/29 06:33:31;;;;;;;1.25;0.60;;;;;5.70;101376.00;;;;5090111;28;20042;-76
2021/06/29 06:35:57;;;;;;;1.70;0.60;;;;;5.70;101378.00;;;;5089993;28;20026;-76
2021/06/29 06:38:24;;;;;;;2.72;0.77;;;;;5.60;101318.00;;;;5089974;28;20024;-76
2021/06/29 06:40:50;;;;;;;3.95;0.70;;;;;5.60;101370.00;;;;5089715;28;20441;-77
2021/06/29 06:43:17;;;;;;;1.63;0.90;;;;;5.70;101364.00;;;;5089874;28;20115;-77
2021/06/29 06:45:44;;;;;;;2.35;0.60;;;;;5.70;101380.00;;;;5089999;28;20020;-77
2021/06/29 06:48:10;;;;;;;1.77;0.43;;;;;5.80;101377.00;;;;5089853;28;20106;-75
2021/06/29 06:50:37;;;;;;;2.08;0.60;;;;;5.70;101397.00;;;;5089744;28;20027;-77
2021/06/29 06:53:03;;;;;;;1.48;0.70;;;;;5.70;101376.00;;;;5089935;28;20032;-77
2021/06/29 06:55:30;;;;;;;2.33;0.80;;;;;5.70;101365.00;;;;5090103;28;20073;-76
2021/06/29 06:57:57;;;;;;;1.05;0.50;;;;;5.60;101380.00;;;;5088992;28;20026;-76
2021/06/29 07:00:26;;;;;;;7.20;0.80;;;;;5.50;101362.00;;;;5089565;28;20043;-76
2021/06/29 07:02:56;;;;;;;0.77;0.60;;;;;5.50;101389.00;;;;5089683;28;20089;-76
2021/06/29 07:05:22;;;;;;;2.53;0.93;;;;;5.70;101357.00;;;;5089383;28;20027;-77
2021/06/29 07:07:49;;;;;;;6.57;1.10;;;;;5.80;101349.00;;;;5089613;28;20034;-76
2021/06/29 07:10:16;;;;;;;0.77;0.40;;;;;5.90;101380.00;;;;5089527;28;20540;-77
2021/06/29 07:12:43;;;;;;;2.63;0.75;;;;;6.00;101370.00;;;;5089551;28;20142;-77
2021/06/29 07:15:10;;;;;;;2.33;0.57;;;;;6.10;101382.00;;;;5089565;28;20063;-75
2021/06/29 07:17:38;;;;;;;1.45;0.80;;;;;6.20;101376.00;;;;5089649;28;20028;-77
2021/06/29 07:20:07;;;;;;;1.77;1.00;;;;;6.30;101373.00;;;;5089351;28;20718;-76
2021/06/29 07:22:34;;;;;;;5.55;1.08;;;;;6.30;101363.00;;;;5089509;28;20510;-76
2021/06/29 07:25:01;;;;;;;4.07;0.90;;;;;6.30;101362.00;;;;5089232;28;20036;-76
2021/06/29 07:27:28;;;;;;;1.88;1.20;;;;;6.40;101359.00;;;;5089504;28;20115;-75
2021/06/29 07:29:54;;;;;;;2.75;1.08;;;;;6.40;101345.00;;;;5088936;28;20024;-77
2021/06/29 07:32:21;;;;;;;3.33;0.75;;;;;6.50;101332.00;;;;5089417;28;20035;-76
2021/06/29 07:34:47;;;;;;;3.78;1.10;;;;;6.50;101343.00;;;;5088473;28;20491;-76
2021/06/29 07:37:14;;;;;;;3.22;1.00;;;;;6.50;101357.00;;;;5088547;28;20139;-77
2021/06/29 07:39:41;;;;;;;2.10;0.80;;;;;6.60;101340.00;;;;5089116;28;20090;-76
2021/06/29 07:42:07;;;;;;;1.17;0.70;;;;;6.60;101324.00;;;;5088901;28;20028;-78
2021/06/29 07:44:34;;;;;;;2.88;0.70;;;;;6.70;101328.00;;;;5088818;28;20153;-76
2021/06/29 07:47:01;;;;;;;1.30;0.77;;;;;6.60;101318.00;;;;5088898;28;20024;-76
2021/06/29 07:49:28;;;;;;;1.40;0.75;;;;;6.70;101312.00;;;;5088602;28;20024;-78
2021/06/29 07:51:54;;;;;;;0.93;0.60;;;;;6.60;101332.00;;;;5089128;28;20490;-78
2021/06/29 07:54:21;;;;;;;1.35;0.50;;;;;6.60;101312.00;;;;5088869;28;20028;-76
2021/06/29 07:56:48;;;;;;;1.73;0.70;;;;;6.60;101329.00;;;;5088290;28;20475;-77
2021/06/29 07:59:14;;;;;;;2.33;0.50;;;;;6.60;101305.00;;;;5088557;28;20044;-77
2021/06/29 08:01:41;;;;;;;2.95;1.27;;;;;6.60;101326.00;;;;5088570;28;20036;-77
2021/06/29 08:04:07;;;;;;;3.28;0.90;;;;;6.60;101301.00;;;;5088930;28;20035;-77
2021/06/29 08:06:35;;;;;;;3.72;0.63;;;;;6.50;101316.00;;;;5088322;28;20154;-76
2021/06/29 08:09:04;;;;;;;0.65;0.47;;;;;6.50;101310.00;;;;5087721;28;20040;-77
2021/06/29 08:11:30;;;;;;;1.45;0.63;;;;;6.50;101308.00;;;;5089008;28;20501;-76
2021/06/29 08:13:57;;;;;;;0.63;0.47;;;;;6.50;101311.00;;;;5088549;28;20107;-77
2021/06/29 08:16:24;;;;;;;1.50;0.82;;;;;6.50;101287.00;;;;5087877;28;20032;-77
2021/06/29 08:18:50;;;;;;;1.33;0.70;;;;;6.50;101306.00;;;;5088324;28;20067;-77
2021/06/29 08:21:17;;;;;;;2.35;1.13;;;;;6.50;101317.00;;;;5093458;28;20028;-77
2021/06/29 08:23:43;;;;;;;2.58;0.90;;;;;6.50;101299.00;;;;5109230;28;20024;-77
2021/06/29 08:26:10;;;;;;;2.65;1.08;;;;;6.40;101325.00;;;;5112563;28;20032;-77
2021/06/29 08:28:38;;;;;;;1.17;0.73;;;;;6.30;101298.00;;;;5092318;28;20078;-77
2021/06/29 08:31:05;;;;;;;2.13;0.85;;;;;6.40;101297.00;;;;5089119;28;20053;-76
2021/06/29 08:33:32;;;;;;;3.25;0.75;;;;;6.40;101308.00;;;;5088294;28;20522;-77
2021/06/29 08:35:59;;;;;;;3.47;1.00;;;;;6.40;101306.00;;;;5087909;28;20067;-77
2021/06/29 08:38:26;;;;;;;3.13;1.30;;;;;6.40;101313.00;;;;5088467;28;20071;-77
2021/06/29 08:40:52;;;;;;;3.10;0.82;;;;;6.40;101312.00;;;;5088776;28;20054;-77
2021/06/29 08:43:19;;;;;;;1.95;1.00;;;;;6.40;101303.00;;;;5087766;28;20088;-77
2021/06/29 08:45:47;;;;;;;2.97;0.98;;;;;6.40;101290.00;;;;5087410;28;20043;-74
2021/06/29 08:48:14;;;;;;;2.75;0.85;;;;;6.40;101305.00;;;;5088036;28;21046;-77
2021/06/29 08:50:42;;;;;;;3.30;1.17;;;;;6.30;101301.00;;;;5087303;28;20032;-77
2021/06/29 08:53:12;;;;;;;1.45;0.93;;;;;6.40;101299.00;;;;5087311;28;20032;-76
2021/06/29 08:55:43;;;;;;;3.28;1.65;;;;;6.40;101321.00;;;;5087239;28;20037;-76
2021/06/29 08:58:10;;;;;;;6.43;1.20;;;;;6.40;101310.00;;;;5087218;28;20024;-77
2021/06/29 09:00:37;;;;;;;14.02;2.53;;;;;6.30;101328.00;;;;5069073;28;20432;-76
2021/06/29 09:03:05;;;;;;;4.22;1.40;;;;;6.40;101307.00;;;;5087827;28;20036;-75
2021/06/29 09:05:32;;;;;;;2.17;1.05;;;;;6.30;101306.00;;;;5087593;28;20024;-76
2021/06/29 09:08:08;;;;;;;15.07;2.50;;;;;6.30;101328.00;;;;5087000;28;20502;-75
2021/06/29 09:10:37;;;;;;;2.58;1.20;;;;;6.30;101322.00;;;;5087050;28;20063;-76
2021/06/29 09:13:06;;;;;;;3.78;1.25;;;;;6.30;101312.00;;;;5068906;28;20039;-76
2021/06/29 09:15:46;;;;;;;5.88;1.75;;;;;6.30;101306.00;;;;5086873;28;20035;-76
2021/06/29 09:18:30;;;;;;;2.13;1.20;;;;;6.30;101324.00;;;;5086962;28;20566;-75
2021/06/29 09:21:00;;;;;;;2.03;1.20;;;;;6.30;101312.00;;;;5086647;28;20028;-75
2021/06/29 09:23:32;;;;;;;8.65;1.85;;;;;6.30;101332.00;;;;5087385;28;20031;-75
2021/06/29 09:26:06;;;;;;;3.53;1.33;;;;;6.30;101337.00;;;;5087042;28;20042;-78
2021/06/29 09:28:38;;;;;;;4.07;1.90;;;;;6.30;101342.00;;;;5086801;28;20026;-77
2021/06/29 09:31:17;;;;;;;3.53;1.63;;;;;6.30;101320.00;;;;5087445;28;20507;-75
2021/06/29 09:33:50;;;;;;;5.85;1.98;;;;;6.30;101344.00;;;;5086898;28;20050;-76
2021/06/29 09:36:20;;;;;;;2.97;1.55;;;;;6.20;101355.00;;;;5088162;28;20060;-76
2021/06/29 09:38:49;;;;;;;23.90;3.10;;;;;6.20;101323.00;;;;5086645;28;20439;-77
2021/06/29 09:41:37;;;;;;;3.40;1.20;;;;;6.20;101356.00;;;;5086793;28;20111;-77
2021/06/29 09:44:09;;;;;;;2.42;1.30;;;;;6.20;101337.00;;;;5086384;28;20032;-78
2021/06/29 09:46:38;;;;;;;5.07;1.80;;;;;6.10;101332.00;;;;5086781;28;20487;-76
2021/06/29 09:49:13;;;;;;;6.25;1.90;;;;;6.00;101347.00;;;;5086800;28;20471;-76
2021/06/29 09:51:40;;;;;;;4.65;1.90;;;;;5.90;101355.00;;;;5086835;28;20060;-79
2021/06/29 09:54:09;;;;;;;6.38;2.28;;;;;5.90;101347.00;;;;5086595;28;20021;-77
2021/06/29 09:56:40;;;;;;;3.03;1.25;;;;;5.90;101352.00;;;;5087370;28;20435;-77
2021/06/29 09:59:41;;;;;;;2.10;0.85;;;;;6.00;101348.00;;;;5085601;28;20075;-77
2021/06/29 10:02:11;;;;;;;5.50;1.50;;;;;6.00;101331.00;;;;5086978;28;20486;-77
2021/06/29 10:04:38;;;;;;;5.43;1.55;;;;;5.90;101345.00;;;;5085157;28;20036;-77
2021/06/29 10:07:19;;;;;;;2.42;1.15;;;;;6.00;101356.00;;;;5086262;28;20024;-78
2021/06/29 10:10:05;;;;;;;3.70;1.23;;;;;6.00;101335.00;;;;5086005;28;20077;-76
2021/06/29 10:12:31;;;;;;;2.83;1.73;;;;;6.00;101360.00;;;;5086267;28;20118;-77
2021/06/29 10:14:59;;;;;;;13.43;4.20;;;;;6.00;101344.00;;;;5086067;28;20085;-77
2021/06/29 10:17:26;;;;;;;1.58;1.00;;;;;6.10;101330.00;;;;5086234;28;20062;-80
2021/06/29 10:20:25;;;;;;;3.42;0.90;;;;;6.10;101372.00;;;;5085902;28;20554;-77
2021/06/29 10:22:53;;;;;;;1.58;1.10;;;;;6.20;101340.00;;;;5086492;28;20468;-78
2021/06/29 10:25:20;;;;;;;6.80;1.10;;;;;6.20;101345.00;;;;5085746;28;20103;-75
2021/06/29 10:27:47;;;;;;;7.05;2.28;;;;;6.20;101358.00;;;;5085682;28;20028;-77
2021/06/29 10:30:14;;;;;;;5.55;3.38;;;;;6.30;101351.00;;;;5086057;28;20372;-79
2021/06/29 10:32:41;;;;;;;2.80;0.95;;;;;6.30;101357.00;;;;5086815;28;20036;-78
2021/06/29 10:35:08;;;;;;;2.38;1.10;;;;;6.30;101361.00;;;;5089803;28;20115;-77
2021/06/29 10:37:37;;;;;;;8.05;1.98;;;;;6.30;101390.00;;;;5090330;28;20040;-77
2021/06/29 10:40:05;;;;;;;5.25;1.52;;;;;6.30;101345.00;;;;5089826;28;20782;-77
2021/06/29 10:42:33;;;;;;;5.55;1.55;;;;;6.40;101381.00;;;;5089494;28;20020;-78
2021/06/29 10:45:15;;;;;;;3.42;1.15;;;;;6.50;101372.00;;;;5090149;28;20369;-78
2021/06/29 10:47:42;;;;;;;4.78;1.40;;;;;6.50;101375.00;;;;5090472;28;20020;-78
2021/06/29 10:50:15;;;;;;;2.40;1.25;;;;;6.50;101357.00;;;;5090508;28;20062;-78
2021/06/29 10:52:44;;;;;;;1.55;1.27;;;;;6.40;101359.00;;;;5090125;28;20127;-78
2021/06/29 10:55:25;;;;;;;4.15;1.15;;;;;6.50;101383.00;;;;5089522;28;20118;-78
2021/06/29 10:58:02;;;;;;;6.18;1.35;;;;;6.60;101375.00;;;;5089745;28;21302;-77
2021/06/29 11:00:35;;;;;;;2.70;1.05;;;;;6.70;101394.00;;;;5089348;28;20052;-77
2021/06/29 11:03:10;;;;;;;5.03;1.00;;;;;6.80;101379.00;;;;5089412;28;20032;-77
2021/06/29 11:05:41;;;;;;;0.98;0.88;;;;;6.70;101393.00;;;;5089774;28;20032;-76
2021/06/29 11:08:13;;;;;;;;;;;;;6.80;101407.00;;;;5089968;28;20020;-75
2021/06/29 11:10:44;;;;;;;;;;;;;6.90;101391.00;;;;5090129;28;19920;-74
2021/06/29 11:13:11;;;;;;;1.70;1.30;;;;;6.80;101403.00;;;;5089918;28;19923;-77
2021/06/29 11:15:42;;;;;;;1.58;0.98;;;;;6.70;101405.00;;;;5089516;28;20020;-80
2021/06/29 11:18:11;;;;;;;5.97;1.60;;;;;6.50;101407.00;;;;5089784;28;20054;-75
2021/06/29 11:20:38;;;;;;;1.65;0.85;;;;;6.40;101395.00;;;;5089722;28;20499;-78
2021/06/29 11:23:15;;;;;;;2.60;0.77;;;;;6.40;101400.00;;;;5088564;28;20112;-78
2021/06/29 11:25:53;;;;;;;8.10;1.23;;;;;6.50;101384.00;;;;5089186;28;20028;-76
2021/06/29 11:28:30;;;;;;;4.63;1.17;;;;;6.50;101409.00;;;;5089398;28;20034;-80
2021/06/29 11:31:15;;;;;;;3.85;1.42;;;;;6.60;101417.00;;;;5089245;28;20066;-79
2021/06/29 11:33:46;;;;;;;5.30;1.38;;;;;6.60;101414.00;;;;5088962;28;20039;-77
2021/06/29 11:36:24;;;;;;;8.15;1.50;;;;;6.60;101403.00;;;;5088765;28;20067;-78
2021/06/29 11:38:52;;;;;;;3.05;1.48;;;;;6.70;101390.00;;;;5089353;28;20028;-79
2021/06/29 11:41:28;;;;;;;3.38;1.63;;;;;6.70;101416.00;;;;5089082;28;20024;-74
2021/06/29 11:43:57;;;;;;;4.43;1.50;;;;;8.10;101300.00;;;;5089300;28;20059;-77
2021/06/29 11:47:00;;;;;;;2.50;1.20;;;;;10.10;101281.00;;;;5070319;28;20032;-78
2021/06/29 11:49:32;;;;;;;2.85;1.23;;;;;15.30;101144.00;;;;5089004;28;20031;-77
2021/06/29 11:52:17;;;;;;;2.58;1.38;;;;;15.60;101155.00;;;;5089051;28;20058;-79
2021/06/29 11:55:07;;;;;;;2.53;1.25;;;;;13.00;101252.00;;;;5089011;28;20110;-76
2021/06/29 11:57:43;;;;;;;1.88;0.80;;;;;12.80;101376.00;;;;5089158;28;20043;-76
2021/06/29 12:00:21;;;;;;;2.47;1.10;;;;;9.50;101390.00;;;;5088789;28;20495;-76
2021/06/29 12:02:50;;;;;;;1.63;0.98;;;;;8.80;101378.00;;;;5089241;28;20052;-77
2021/06/29 12:05:19;;;;;;;2.40;1.10;;;;;8.50;101388.00;;;;5089102;28;20035;-77
2021/06/29 12:07:57;;;;;;;3.33;1.08;;;;;8.90;101383.00;;;;5088280;28;20028;-77
2021/06/29 12:10:32;;;;;;;1.63;1.00;;;;;9.10;101388.00;;;;5088547;28;20028;-78
2021/06/29 12:13:01;;;;;;;2.25;0.70;;;;;8.60;101409.00;;;;5088818;28;20016;-76
2021/06/29 12:15:32;;;;;;;1.98;1.20;;;;;8.30;101425.00;;;;5089101;28;20150;-78
2021/06/29 12:18:08;;;;;;;2.65;1.02;;;;;8.30;101417.00;;;;5087914;28;20066;-76
2021/06/29 12:20:38;;;;;;;3.80;1.20;;;;;8.50;101397.00;;;;5087944;28;20125;-78
2021/06/29 12:23:07;;;;;;;4.55;1.92;;;;;8.60;101400.00;;;;5088504;28;20031;-75
2021/06/29 12:25:37;;;;;;;3.13;1.33;;;;;8.70;101388.00;;;;5069733;28;20028;-79
2021/06/29 12:28:08;;;;;;;4.40;1.40;;;;;8.60;101423.00;;;;5088124;28;20024;-77
2021/06/29 12:30:38;;;;;;;6.78;1.38;;;;;8.80;101406.00;;;;5088246;28;20032;-80